createdAt,value
2018-09-21T00:01:30.349Z,99851.84
2018-09-21T00:04:07.520Z,99844.28
2018-09-21T00:06:36.453Z,99849.41
2018-09-21T00:09:07.593Z,99844.66
2018-09-21T00:11:36.552Z,99848.75
2018-09-21T00:14:05.473Z,99844.98
2018-09-21T00:16:34.386Z,99847.50
2018-09-21T00:19:03.362Z,99844.33
2018-09-21T00:21:32.324Z,99845.94
2018-09-21T00:24:01.224Z,99834.77
2018-09-21T00:26:30.139Z,99837.14
2018-09-21T00:28:59.038Z,99837.27
2018-09-21T00:31:27.982Z,99835.38
2018-09-21T00:33:56.921Z,99833.57
2018-09-21T00:36:25.876Z,99826.09
2018-09-21T00:38:54.865Z,99826.25
2018-09-21T00:41:23.760Z,99820.13
2018-09-21T00:43:52.672Z,99820.94
2018-09-21T00:46:21.592Z,99815.96
2018-09-21T00:48:50.540Z,99812.91
2018-09-21T00:51:19.449Z,99818.35
2018-09-21T00:53:48.352Z,99814.16
2018-09-21T00:56:17.271Z,99816.91
2018-09-21T00:58:46.241Z,99816.00
2018-09-21T01:01:15.212Z,99810.00
2018-09-21T01:03:44.097Z,99804.72
2018-09-21T01:06:13.016Z,99802.80
2018-09-21T01:08:41.961Z,99800.77
2018-09-21T01:11:10.844Z,99792.95
2018-09-21T01:13:39.775Z,99793.20
2018-09-21T01:16:08.688Z,99795.01
2018-09-21T01:18:37.622Z,99795.67
2018-09-21T01:21:06.552Z,99793.53
2018-09-21T01:23:35.488Z,99787.16
2018-09-21T01:26:04.411Z,99790.57
2018-09-21T01:28:33.437Z,99790.03
2018-09-21T01:31:02.446Z,99783.36
2018-09-21T01:33:31.359Z,99784.83
2018-09-21T01:36:00.348Z,99782.56
2018-09-21T01:38:29.300Z,99782.56
2018-09-21T01:40:58.336Z,99779.75
2018-09-21T01:43:27.286Z,99778.73
2018-09-21T01:45:56.195Z,99775.34
2018-09-21T01:48:25.136Z,99775.11
2018-09-21T01:50:54.107Z,99768.34
2018-09-21T01:53:23.021Z,99771.17
2018-09-21T01:55:51.973Z,99767.11
2018-09-21T01:58:20.909Z,99769.12
2018-09-21T02:00:49.996Z,99768.56
2018-09-21T02:03:18.927Z,99764.48
2018-09-21T02:05:47.836Z,99760.64
2018-09-21T02:08:16.752Z,99756.81
2018-09-21T02:10:46.072Z,99763.80
2018-09-21T02:13:14.972Z,99757.48
2018-09-21T02:15:43.928Z,99760.30
2018-09-21T02:18:12.854Z,99757.03
2018-09-21T02:20:41.770Z,99761.77
2018-09-21T02:23:10.704Z,99757.81
2018-09-21T02:25:39.638Z,99755.22
2018-09-21T02:28:08.547Z,99757.13
2018-09-21T02:30:37.453Z,99754.88
2018-09-21T02:33:06.368Z,99748.09
2018-09-21T02:35:35.286Z,99752.11
2018-09-21T02:38:04.260Z,99750.52
2018-09-21T02:40:33.251Z,99747.92
2018-09-21T02:43:02.194Z,99741.82
2018-09-21T02:45:31.313Z,99738.87
2018-09-21T02:48:00.213Z,99735.48
2018-09-21T02:50:29.184Z,99736.84
2018-09-21T02:52:58.120Z,99734.13
2018-09-21T02:55:27.101Z,99732.75
2018-09-21T02:57:56.053Z,99733.20
2018-09-21T03:00:25.053Z,99725.98
2018-09-21T03:02:53.909Z,99727.09
2018-09-21T03:05:22.988Z,99726.66
2018-09-21T03:07:51.977Z,99725.63
2018-09-21T03:10:20.933Z,99721.00
2018-09-21T03:12:49.957Z,99717.58
2018-09-21T03:15:18.913Z,99716.22
2018-09-21T03:17:47.844Z,99716.01
2018-09-21T03:20:16.767Z,99708.98
2018-09-21T03:22:45.679Z,99715.22
2018-09-21T03:25:14.697Z,99708.45
2018-09-21T03:27:43.665Z,99705.36
2018-09-21T03:30:12.589Z,99709.53
2018-09-21T03:32:41.509Z,99704.22
2018-09-21T03:35:10.515Z,99701.87
2018-09-21T03:37:39.400Z,99702.97
2018-09-21T03:40:08.398Z,99700.94
2018-09-21T03:42:37.320Z,99699.02
2018-09-21T03:45:06.684Z,99699.70
2018-09-21T03:47:35.591Z,99701.72
2018-09-21T03:50:04.535Z,99697.20
2018-09-21T03:52:33.436Z,99695.60
2018-09-21T03:55:02.387Z,99696.52
2018-09-21T03:57:31.320Z,99688.58
2018-09-21T04:00:00.260Z,99700.77
2018-09-21T04:02:29.212Z,99693.64
2018-09-21T04:04:58.120Z,99693.20
2018-09-21T04:07:27.058Z,99691.71
2018-09-21T04:09:55.999Z,99684.05
2018-09-21T04:12:24.907Z,99676.36
2018-09-21T04:14:53.850Z,99681.31
2018-09-21T04:17:22.768Z,99670.94
2018-09-21T04:19:51.722Z,99673.40
2018-09-21T04:22:20.669Z,99669.77
2018-09-21T04:24:49.678Z,99670.41
2018-09-21T04:27:18.580Z,99667.80
2018-09-21T04:29:47.479Z,99661.60
2018-09-21T04:32:16.513Z,99661.81
2018-09-21T04:34:45.447Z,99655.69
2018-09-21T04:37:14.455Z,99656.16
2018-09-21T04:39:43.429Z,99652.77
2018-09-21T04:42:12.350Z,99651.77
2018-09-21T04:44:41.306Z,99650.52
2018-09-21T04:47:10.237Z,99646.36
2018-09-21T04:49:39.120Z,99646.51
2018-09-21T04:52:08.108Z,99643.77
2018-09-21T04:54:37.090Z,99644.08
2018-09-21T04:57:05.971Z,99642.61
2018-09-21T04:59:34.870Z,99643.92
2018-09-21T05:02:03.799Z,99643.25
2018-09-21T05:04:32.724Z,99640.45
2018-09-21T05:07:01.678Z,99637.59
2018-09-21T05:09:30.593Z,99632.66
2018-09-21T05:11:59.542Z,99626.14
2018-09-21T05:14:28.477Z,99627.52
2018-09-21T05:16:57.401Z,99626.80
2018-09-21T05:19:26.332Z,99621.41
2018-09-21T05:21:55.328Z,99622.98
2018-09-21T05:24:24.221Z,99622.77
2018-09-21T05:26:53.156Z,99615.66
2018-09-21T05:29:22.100Z,99614.19
2018-09-21T05:31:51.001Z,99616.89
2018-09-21T05:34:20.053Z,99619.15
2018-09-21T05:36:48.968Z,99621.06
2018-09-21T05:39:17.877Z,99622.77
2018-09-21T05:41:46.818Z,99624.04
2018-09-21T05:44:15.739Z,99623.23
2018-09-21T05:46:44.735Z,99621.06
2018-09-21T05:49:13.656Z,99617.29
2018-09-21T05:51:43.391Z,99622.36
2018-09-21T05:54:12.352Z,99610.43
2018-09-21T05:56:41.882Z,99607.08
2018-09-21T05:59:10.804Z,99610.04
2018-09-21T06:01:40.091Z,99604.33
2018-09-21T06:04:09.272Z,99602.22
2018-09-21T06:06:38.253Z,99602.02
2018-09-21T06:09:09.813Z,99596.81
2018-09-21T06:11:39.666Z,99594.83
2018-09-21T06:14:09.174Z,99598.61
2018-09-21T06:16:38.065Z,99598.91
2018-09-21T06:19:07.236Z,99600.19
2018-09-21T06:21:36.440Z,99591.72
2018-09-21T06:24:05.866Z,99593.70
2018-09-21T06:26:34.853Z,99591.81
2018-09-21T06:29:03.800Z,99593.03
2018-09-21T06:31:32.818Z,99591.75
2018-09-21T06:34:02.096Z,99592.48
2018-09-21T06:36:31.030Z,99582.09
2018-09-21T06:38:59.976Z,99582.09
2018-09-21T06:41:28.927Z,99574.97
2018-09-21T06:43:57.974Z,99575.91
2018-09-21T06:46:26.960Z,99569.79
2018-09-21T06:48:55.997Z,99564.90
2018-09-21T06:51:27.035Z,99572.63
2018-09-21T06:53:56.520Z,99567.66
2018-09-21T06:56:25.558Z,99570.05
2018-09-21T06:58:54.560Z,99572.63
2018-09-21T07:01:23.490Z,99565.95
2018-09-21T07:03:52.409Z,99560.11
2018-09-21T07:06:21.378Z,99559.27
2018-09-21T07:08:50.367Z,99557.13
2018-09-21T07:11:20.025Z,99552.03
2018-09-21T07:13:48.959Z,99551.78
2018-09-21T07:16:17.927Z,99545.77
2018-09-21T07:18:46.944Z,99546.38
2018-09-21T07:21:15.927Z,99543.64
2018-09-21T07:23:45.106Z,99545.56
2018-09-21T07:26:14.124Z,99546.33
2018-09-21T07:28:43.136Z,99550.98
2018-09-21T07:31:12.092Z,99556.72
2018-09-21T07:33:41.666Z,99543.37
2018-09-21T07:36:11.383Z,99540.62
2018-09-21T07:38:40.385Z,99537.48
2018-09-21T07:41:09.364Z,99538.23
2018-09-21T07:43:38.747Z,99543.25
2018-09-21T07:46:08.044Z,99545.00
2018-09-21T07:48:37.113Z,99536.49
2018-09-21T07:51:06.521Z,99532.95
2018-09-21T07:53:35.573Z,99531.26
2018-09-21T07:56:04.559Z,99525.31
2018-09-21T07:58:33.537Z,99526.20
2018-09-21T08:01:03.126Z,99516.77
2018-09-21T08:03:32.296Z,99520.28
2018-09-21T08:06:01.288Z,99515.48
2018-09-21T08:08:30.354Z,99506.04
2018-09-21T08:10:59.291Z,99513.45
2018-09-21T08:13:28.295Z,99505.17
2018-09-21T08:15:57.324Z,99507.46
2018-09-21T08:18:26.317Z,99496.77
2018-09-21T08:20:55.336Z,99495.47
2018-09-21T08:23:24.249Z,99489.82
2018-09-21T08:25:53.282Z,99483.67
2018-09-21T08:28:22.283Z,99488.39
2018-09-21T08:30:51.225Z,99477.83
2018-09-21T08:33:20.284Z,99482.22
2018-09-21T08:35:49.163Z,99476.41
2018-09-21T08:38:18.123Z,99468.05
2018-09-21T08:40:47.101Z,99474.28
2018-09-21T08:43:16.050Z,99455.81
2018-09-21T08:45:45.027Z,99457.89
2018-09-21T08:48:13.977Z,99446.85
2018-09-21T08:50:42.890Z,99444.33
2018-09-21T08:53:11.906Z,99449.66
2018-09-21T08:55:40.819Z,99452.31
2018-09-21T08:58:09.721Z,99448.48
2018-09-21T09:00:38.658Z,99445.30
2018-09-21T09:03:07.754Z,99456.21
2018-09-21T09:05:36.624Z,99439.30
2018-09-21T09:08:05.721Z,99430.25
2018-09-21T09:10:34.654Z,99427.27
2018-09-21T09:13:03.588Z,99427.30
2018-09-21T09:15:32.511Z,99426.09
2018-09-21T09:18:01.563Z,99409.48
2018-09-21T09:20:30.467Z,99400.00
2018-09-21T09:22:59.414Z,99401.48
2018-09-21T09:25:28.382Z,99388.79
2018-09-21T09:27:57.307Z,99392.86
2018-09-21T09:30:26.245Z,99388.41
2018-09-21T09:32:55.199Z,99376.29
2018-09-21T09:35:24.109Z,99384.64
2018-09-21T09:37:53.072Z,99380.80
2018-09-21T09:40:22.199Z,99366.87
2018-09-21T09:42:51.301Z,99367.60
2018-09-21T09:45:20.227Z,99359.74
2018-09-21T09:47:49.401Z,99356.62
2018-09-21T09:50:18.374Z,99350.85
2018-09-21T09:52:47.327Z,99330.02
2018-09-21T09:55:16.358Z,99323.80
2018-09-21T09:57:45.272Z,99332.88
2018-09-21T10:00:14.441Z,99327.30
2018-09-21T10:02:43.396Z,99322.36
2018-09-21T10:05:12.382Z,99324.29
2018-09-21T10:07:42.151Z,99317.14
2018-09-21T10:10:12.220Z,99307.74
2018-09-21T10:12:41.146Z,99305.01
2018-09-21T10:15:10.172Z,99310.99
2018-09-21T10:17:39.106Z,99297.46
2018-09-21T10:20:08.053Z,99298.04
2018-09-21T10:22:36.982Z,99288.98
2018-09-21T10:25:05.910Z,99279.03
2018-09-21T10:27:34.877Z,99263.16
2018-09-21T10:30:03.818Z,99270.52
2018-09-21T10:32:33.029Z,99269.70
2018-09-21T10:35:01.964Z,99266.30
2018-09-21T10:37:30.897Z,99271.89
2018-09-21T10:40:00.001Z,99266.78
2018-09-21T10:42:28.911Z,99268.58
2018-09-21T10:44:57.806Z,99258.38
2018-09-21T10:47:26.729Z,99263.91
2018-09-21T10:49:55.664Z,99261.30
2018-09-21T10:52:24.628Z,99254.78
2018-09-21T10:54:53.579Z,99248.33
2018-09-21T10:57:22.539Z,99251.48
2018-09-21T10:59:58.135Z,99243.47
2018-09-21T11:02:27.075Z,99240.97
2018-09-21T11:04:56.518Z,99247.85
2018-09-21T11:07:26.006Z,99250.50
2018-09-21T11:09:54.934Z,99241.03
2018-09-21T11:12:23.858Z,99241.85
2018-09-21T11:14:52.826Z,99236.34
2018-09-21T11:17:21.777Z,99233.18
2018-09-21T11:19:50.688Z,99236.85
2018-09-21T11:22:19.627Z,99234.25
2018-09-21T11:24:48.587Z,99234.96
2018-09-21T11:27:17.574Z,99246.20
2018-09-21T11:29:46.522Z,99220.48
2018-09-21T11:32:15.501Z,99211.00
2018-09-21T11:34:44.533Z,99221.14
2018-09-21T11:37:13.489Z,99217.19
2018-09-21T11:39:42.500Z,99204.50
2018-09-21T11:42:11.484Z,99189.29
2018-09-21T11:44:40.655Z,99194.36
2018-09-21T11:47:09.814Z,99195.07
2018-09-21T11:49:38.682Z,99186.91
2018-09-21T11:52:07.647Z,99191.08
2018-09-21T11:54:36.669Z,99187.44
2018-09-21T11:57:05.639Z,99185.59
2018-09-21T11:59:34.616Z,99171.30
2018-09-21T12:02:03.687Z,99173.26
2018-09-21T12:04:32.612Z,99176.05
2018-09-21T12:07:01.578Z,99162.15
2018-09-21T12:09:30.556Z,99168.30
2018-09-21T12:11:59.478Z,99160.45
2018-09-21T12:14:28.449Z,99161.77
2018-09-21T12:16:57.482Z,99159.03
2018-09-21T12:19:26.433Z,99130.25
2018-09-21T12:21:55.421Z,99148.98
2018-09-21T12:24:24.414Z,99139.72
2018-09-21T12:26:53.349Z,99127.33
2018-09-21T12:29:22.518Z,99137.69
2018-09-21T12:31:51.548Z,99125.38
2018-09-21T12:34:20.643Z,99116.17
2018-09-21T12:36:49.730Z,99112.59
2018-09-21T12:39:18.735Z,99112.83
2018-09-21T12:41:47.672Z,99100.85
2018-09-21T12:44:17.512Z,99099.85
2018-09-21T12:46:46.501Z,99079.76
2018-09-21T12:49:15.497Z,99088.92
2018-09-21T12:51:44.483Z,99079.47
2018-09-21T12:54:13.462Z,99079.30
2018-09-21T12:56:42.409Z,99067.63
2018-09-21T12:59:11.360Z,99072.52
2018-09-21T13:01:40.331Z,99069.94
2018-09-21T13:04:09.323Z,99075.57
2018-09-21T13:06:38.298Z,99070.50
2018-09-21T13:09:07.696Z,99067.73
2018-09-21T13:11:36.696Z,99063.80
2018-09-21T13:14:05.628Z,99059.07
2018-09-21T13:16:34.583Z,99049.32
2018-09-21T13:19:03.524Z,99065.67
2018-09-21T13:21:32.578Z,99059.84
2018-09-21T13:24:01.571Z,99058.91
2018-09-21T13:26:30.620Z,99055.48
2018-09-21T13:28:59.967Z,99046.07
2018-09-21T13:31:28.943Z,99050.97
2018-09-21T13:33:57.876Z,99051.48
2018-09-21T13:36:26.849Z,99052.70
2018-09-21T13:38:55.845Z,99057.16
2018-09-21T13:41:24.792Z,99047.12
2018-09-21T13:43:53.825Z,99044.29
2018-09-21T13:46:22.841Z,99042.20
2018-09-21T13:48:51.881Z,99049.73
2018-09-21T13:51:20.978Z,99050.65
2018-09-21T13:53:49.924Z,99033.37
2018-09-21T13:56:18.934Z,99040.72
2018-09-21T13:58:48.071Z,99030.91
2018-09-21T14:01:17.022Z,99022.56
2018-09-21T14:03:45.984Z,99039.81
2018-09-21T14:06:14.976Z,99029.64
2018-09-21T14:08:43.929Z,99031.18
2018-09-21T14:11:12.965Z,99021.91
2018-09-21T14:13:41.903Z,99037.17
2018-09-21T14:16:10.851Z,99034.81
2018-09-21T14:18:40.939Z,99038.55
2018-09-21T14:21:09.994Z,99047.63
2018-09-21T14:23:38.952Z,99038.56
2018-09-21T14:26:07.893Z,99038.39
2018-09-21T14:28:36.896Z,99022.23
2018-09-21T14:31:05.932Z,99034.85
2018-09-21T14:33:34.920Z,99058.39
2018-09-21T14:36:03.910Z,99021.52
2018-09-21T14:38:32.850Z,99010.55
2018-09-21T14:41:01.874Z,99003.77
2018-09-21T14:43:30.811Z,99019.92
2018-09-21T14:45:59.785Z,99002.41
2018-09-21T14:48:28.781Z,98997.07
2018-09-21T14:50:57.766Z,98997.92
2018-09-21T14:53:26.686Z,98998.94
2018-09-21T14:55:55.640Z,98988.70
2018-09-21T14:58:24.569Z,98984.31
2018-09-21T15:00:53.513Z,98982.59
2018-09-21T15:03:22.478Z,98983.97
2018-09-21T15:05:51.446Z,98981.39
2018-09-21T15:08:20.461Z,98980.87
2018-09-21T15:10:49.457Z,98983.24
2018-09-21T15:13:18.397Z,98995.75
2018-09-21T15:15:47.541Z,99001.96
2018-09-21T15:18:16.484Z,98987.31
2018-09-21T15:20:45.505Z,98990.27
2018-09-21T15:23:14.586Z,98990.61
2018-09-21T15:25:43.661Z,99001.14
2018-09-21T15:28:12.895Z,98990.10
2018-09-21T15:30:41.910Z,98996.22
2018-09-21T15:33:10.869Z,99004.08
2018-09-21T15:35:39.851Z,99012.68
2018-09-21T15:38:09.160Z,99028.91
2018-09-21T15:40:38.210Z,99079.53
2018-09-21T15:43:07.695Z,99164.19
2018-09-21T15:45:36.568Z,99113.73
2018-09-21T15:48:05.538Z,99123.84
2018-09-21T15:50:34.528Z,99097.30
2018-09-21T15:53:03.569Z,99108.09
2018-09-21T15:55:32.577Z,99074.45
2018-09-21T15:58:01.588Z,99054.06
2018-09-21T16:00:30.684Z,99069.28
2018-09-21T16:02:59.658Z,99064.61
2018-09-21T16:05:28.619Z,99076.88
2018-09-21T16:07:57.726Z,99074.15
2018-09-21T16:10:26.715Z,99072.84
2018-09-21T16:12:55.709Z,99077.13
2018-09-21T16:15:24.721Z,99093.70
2018-09-21T16:17:53.811Z,99081.94
2018-09-21T16:20:25.707Z,99079.25
2018-09-21T16:22:54.652Z,99094.95
2018-09-21T16:25:23.667Z,99102.31
2018-09-21T16:27:52.667Z,99137.17
2018-09-21T16:30:21.670Z,99264.23
2018-09-21T16:32:50.707Z,99247.90
2018-09-21T16:35:19.637Z,99263.27
2018-09-21T16:37:48.581Z,99264.70
2018-09-21T16:40:17.782Z,99278.13
2018-09-21T16:42:46.772Z,99285.30
2018-09-21T16:45:15.744Z,99286.92
2018-09-21T16:47:44.719Z,99291.94
2018-09-21T16:50:13.679Z,99313.59
2018-09-21T16:52:42.731Z,99315.73
2018-09-21T16:55:11.670Z,99307.73
2018-09-21T16:57:40.708Z,99325.14
2018-09-21T17:00:09.773Z,99359.84
2018-09-21T17:02:38.751Z,99380.00
2018-09-21T17:05:07.691Z,99406.82
2018-09-21T17:07:36.638Z,99428.70
2018-09-21T17:10:05.701Z,99439.81
2018-09-21T17:12:34.681Z,99454.39
2018-09-21T17:15:03.643Z,99480.77
2018-09-21T17:17:32.647Z,99452.70
2018-09-21T17:20:01.690Z,99460.98
2018-09-21T17:22:30.636Z,99466.55
2018-09-21T17:24:59.631Z,99476.25
2018-09-21T17:27:28.631Z,99481.27
2018-09-21T17:29:57.682Z,99485.44
2018-09-21T17:32:26.676Z,99489.70
2018-09-21T17:34:55.634Z,99485.44
2018-09-21T17:37:24.679Z,99510.87
2018-09-21T17:39:53.706Z,99514.49
2018-09-21T17:42:22.798Z,99511.37
2018-09-21T17:44:51.886Z,99517.54
2018-09-21T17:47:20.898Z,99531.17
2018-09-21T17:49:49.870Z,99542.67
2018-09-21T17:52:18.848Z,99551.64
2018-09-21T17:54:47.769Z,99546.73
2018-09-21T17:57:16.794Z,99560.47
2018-09-21T17:59:45.768Z,99570.58
2018-09-21T18:02:14.766Z,99589.30
2018-09-21T18:04:43.724Z,99595.92
2018-09-21T18:07:18.925Z,99608.18
2018-09-21T18:09:48.996Z,99624.22
2018-09-21T18:12:18.024Z,99617.20
2018-09-21T18:14:46.980Z,99633.88
2018-09-21T18:17:15.993Z,99644.17
2018-09-21T18:19:45.011Z,99645.16
2018-09-21T18:22:14.009Z,99640.97
2018-09-21T18:24:43.100Z,99655.80
2018-09-21T18:27:12.093Z,99666.61
2018-09-21T18:29:41.083Z,99675.80
2018-09-21T18:32:10.038Z,99679.39
2018-09-21T18:34:39.026Z,99693.94
2018-09-21T18:37:08.055Z,99684.63
2018-09-21T18:39:37.193Z,99686.60
2018-09-21T18:42:06.172Z,99703.23
2018-09-21T18:44:35.262Z,99704.02
2018-09-21T18:47:04.184Z,99696.89
2018-09-21T18:49:33.112Z,99708.83
2018-09-21T18:52:02.703Z,99716.61
2018-09-21T18:54:31.686Z,99721.56
2018-09-21T18:57:00.633Z,99742.61
2018-09-21T18:59:29.825Z,99733.24
2018-09-21T19:01:58.782Z,99715.82
2018-09-21T19:04:27.915Z,99714.92
2018-09-21T19:06:56.921Z,99713.17
2018-09-21T19:09:25.873Z,99729.30
2018-09-21T19:11:54.922Z,99746.91
2018-09-21T19:14:23.933Z,99759.15
2018-09-21T19:16:52.981Z,99788.23
2018-09-21T19:19:21.956Z,99767.92
2018-09-21T19:21:50.950Z,99753.32
2018-09-21T19:24:20.067Z,99750.66
2018-09-21T19:26:48.998Z,99749.27
2018-09-21T19:29:17.966Z,99750.59
2018-09-21T19:31:46.952Z,99749.05
2018-09-21T19:34:16.035Z,99753.21
2018-09-21T19:36:45.018Z,99767.70
2018-09-21T19:39:14.023Z,99792.42
2018-09-21T19:41:43.053Z,99821.97
2018-09-21T19:44:12.176Z,99827.76
2018-09-21T19:46:41.254Z,99838.36
2018-09-21T19:49:10.264Z,99823.91
2018-09-21T19:51:39.210Z,99828.44
2018-09-21T19:54:08.254Z,99821.95
2018-09-21T19:56:37.167Z,99816.00
2018-09-21T19:59:06.441Z,99794.02
2018-09-21T20:01:35.416Z,99812.60
2018-09-21T20:04:04.403Z,99830.12
2018-09-21T20:06:33.575Z,99818.85
2018-09-21T20:09:02.581Z,99812.19
2018-09-21T20:11:31.879Z,99825.06
2018-09-21T20:14:00.858Z,99821.46
2018-09-21T20:16:29.865Z,99821.05
2018-09-21T20:18:59.070Z,99822.55
2018-09-21T20:21:28.099Z,99825.72
2018-09-21T20:23:57.072Z,99815.53
2018-09-21T20:26:26.083Z,99817.58
2018-09-21T20:28:55.046Z,99829.50
2018-09-21T20:31:29.377Z,99832.34
2018-09-21T20:33:58.402Z,99840.98
2018-09-21T20:36:27.378Z,99842.00
2018-09-21T20:38:56.473Z,99844.39
2018-09-21T20:41:25.492Z,99855.80
2018-09-21T20:43:54.494Z,99860.58
2018-09-21T20:46:23.460Z,99865.25
2018-09-21T20:48:52.434Z,99872.54
2018-09-21T20:51:21.735Z,99875.95
2018-09-21T20:53:50.724Z,99879.21
2018-09-21T20:56:19.789Z,99886.27
2018-09-21T20:58:48.851Z,99883.45
2018-09-21T21:01:17.868Z,99896.43
2018-09-21T21:03:46.804Z,99906.41
2018-09-21T21:06:15.765Z,99919.39
2018-09-21T21:08:44.737Z,99928.33
2018-09-21T21:11:13.862Z,99932.92
2018-09-21T21:13:42.986Z,99928.27
2018-09-21T21:16:12.920Z,99928.45
2018-09-21T21:18:41.945Z,99934.38
2018-09-21T21:21:12.009Z,99944.85
2018-09-21T21:23:41.037Z,99946.61
2018-09-21T21:26:10.237Z,99953.84
2018-09-21T21:28:39.565Z,99954.90
2018-09-21T21:31:08.586Z,99955.37
2018-09-21T21:33:37.579Z,99952.52
2018-09-21T21:36:07.049Z,99960.97
2018-09-21T21:38:36.508Z,99968.06
2018-09-21T21:41:06.014Z,99968.00
2018-09-21T21:43:35.306Z,99969.28
2018-09-21T21:46:04.395Z,99973.70
2018-09-21T21:48:33.424Z,99978.72
2018-09-21T21:51:02.977Z,99976.39
2018-09-21T21:53:31.924Z,99987.94
2018-09-21T21:56:02.919Z,99984.84
2018-09-21T21:58:31.889Z,99987.73
2018-09-21T22:01:06.319Z,99992.45
2018-09-21T22:03:35.400Z,100000.05
2018-09-21T22:06:04.315Z,100000.39
2018-09-21T22:08:33.839Z,100003.53
2018-09-21T22:11:06.999Z,100008.19
2018-09-21T22:13:41.268Z,99998.26
2018-09-21T22:16:10.308Z,100001.62
2018-09-21T22:18:39.252Z,100007.25
2018-09-21T22:21:08.186Z,100019.38
2018-09-21T22:23:37.113Z,100022.63
2018-09-21T22:26:06.536Z,100027.28
2018-09-21T22:28:35.477Z,100023.77
2018-09-21T22:31:04.538Z,100040.55
2018-09-21T22:33:33.480Z,100039.34
2018-09-21T22:36:02.476Z,100035.39
2018-09-21T22:38:31.366Z,100034.92
2018-09-21T22:41:00.389Z,100040.16
2018-09-21T22:43:29.318Z,100044.00
2018-09-21T22:45:58.274Z,100046.40
2018-09-21T22:48:27.266Z,100042.65
2018-09-21T22:50:56.221Z,100046.28
2018-09-21T22:53:25.164Z,100049.42
2018-09-21T22:55:54.129Z,100040.78
2018-09-21T22:58:23.250Z,100049.55
2018-09-21T23:00:52.198Z,100066.42
2018-09-21T23:03:21.209Z,100063.84
2018-09-21T23:05:50.215Z,100062.89
2018-09-21T23:08:19.172Z,100062.52
2018-09-21T23:10:48.165Z,100065.31
2018-09-21T23:13:17.110Z,100075.34
2018-09-21T23:15:46.095Z,100075.48
2018-09-21T23:18:15.150Z,100073.34
2018-09-21T23:20:44.124Z,100074.13
2018-09-21T23:23:13.053Z,100076.03
2018-09-21T23:25:42.010Z,100083.03
2018-09-21T23:28:11.343Z,100087.17
2018-09-21T23:30:40.848Z,100087.91
2018-09-21T23:33:09.844Z,100085.56
2018-09-21T23:35:38.810Z,100095.39
2018-09-21T23:38:07.771Z,100095.41
2018-09-21T23:40:36.710Z,100095.41
2018-09-21T23:43:05.715Z,100096.34
2018-09-21T23:45:34.670Z,100089.97
2018-09-21T23:48:03.583Z,100097.58
2018-09-21T23:50:32.526Z,100107.46
2018-09-21T23:53:01.458Z,100105.30
2018-09-21T23:55:30.399Z,100107.46
2018-09-21T23:57:59.329Z,100113.03
